createdAt,value
2018-12-11T00:00:02.320Z,100964.74
2018-12-11T00:02:32.947Z,100962.29
2018-12-11T00:05:04.744Z,100961.93
2018-12-11T00:07:35.568Z,100961.79
2018-12-11T00:10:06.185Z,100955.84
2018-12-11T00:12:37.837Z,100955.42
2018-12-11T00:15:08.269Z,100951.75
2018-12-11T00:17:39.012Z,100943.18
2018-12-11T00:20:09.570Z,100951.66
2018-12-11T00:22:39.565Z,100953.81
2018-12-11T00:25:09.593Z,100963.66
2018-12-11T00:27:40.347Z,100955.87
2018-12-11T00:30:10.341Z,100962.37
2018-12-11T00:32:41.108Z,100962.34
2018-12-11T00:35:11.126Z,100962.42
2018-12-11T00:37:41.126Z,100962.84
2018-12-11T00:40:11.272Z,100951.72
2018-12-11T00:42:41.305Z,100957.72
2018-12-11T00:45:12.318Z,100965.83
2018-12-11T00:47:42.951Z,100962.34
2018-12-11T00:50:13.999Z,100955.17
2018-12-11T00:52:44.552Z,100962.98
2018-12-11T00:55:15.289Z,100958.27
2018-12-11T00:57:45.415Z,100949.70
2018-12-11T01:00:17.072Z,100948.40
2018-12-11T01:02:47.277Z,100961.70
2018-12-11T01:05:17.809Z,100956.20
2018-12-11T01:07:49.363Z,100957.77
2018-12-11T01:10:19.464Z,100955.67
2018-12-11T01:12:49.321Z,100960.75
2018-12-11T01:15:19.433Z,100960.78
2018-12-11T01:17:51.830Z,100962.06
2018-12-11T01:20:21.928Z,100951.83
2018-12-11T01:22:52.891Z,100966.83
2018-12-11T01:25:23.322Z,100972.06
2018-12-11T01:27:53.346Z,100968.69
2018-12-11T01:30:24.167Z,100977.37
2018-12-11T01:32:54.226Z,100985.92
2018-12-11T01:35:25.154Z,100983.70
2018-12-11T01:37:55.802Z,100985.44
2018-12-11T01:40:26.926Z,100984.61
2018-12-11T01:42:56.845Z,100990.52
2018-12-11T01:45:28.202Z,100994.11
2018-12-11T01:47:58.855Z,100976.74
2018-12-11T01:50:29.514Z,100978.77
2018-12-11T01:53:00.093Z,100983.52
2018-12-11T01:55:31.358Z,100984.44
2018-12-11T01:58:01.942Z,100986.71
2018-12-11T02:00:32.066Z,100989.25
2018-12-11T02:03:02.144Z,100991.26
2018-12-11T02:05:33.446Z,101009.23
2018-12-11T02:08:04.102Z,101006.53
2018-12-11T02:10:34.210Z,100999.23
2018-12-11T02:13:05.461Z,100998.72
2018-12-11T02:15:36.065Z,101006.41
2018-12-11T02:18:06.154Z,101004.20
2018-12-11T02:20:37.069Z,101002.73
2018-12-11T02:23:07.133Z,101000.59
2018-12-11T02:25:37.729Z,100998.50
2018-12-11T02:28:09.208Z,101006.13
2018-12-11T02:30:40.353Z,101007.61
2018-12-11T02:33:11.894Z,101003.02
2018-12-11T02:35:44.696Z,101004.27
2018-12-11T02:38:15.313Z,101014.39
2018-12-11T02:40:46.344Z,101010.17
2018-12-11T02:43:16.296Z,101013.05
2018-12-11T02:45:47.036Z,101011.94
2018-12-11T02:48:17.827Z,101006.60
2018-12-11T02:50:48.672Z,101009.47
2018-12-11T02:53:20.040Z,101014.55
2018-12-11T02:55:50.119Z,101009.05
2018-12-11T02:58:20.698Z,101002.09
2018-12-11T03:00:51.316Z,100999.86
2018-12-11T03:03:21.982Z,100998.10
2018-12-11T03:05:52.051Z,100999.98
2018-12-11T03:08:22.747Z,101003.06
2018-12-11T03:10:54.058Z,100997.36
2018-12-11T03:13:24.746Z,101002.17
2018-12-11T03:15:55.729Z,101010.27
2018-12-11T03:18:25.564Z,101002.10
2018-12-11T03:20:55.802Z,100997.98
2018-12-11T03:23:25.928Z,100996.13
2018-12-11T03:25:57.909Z,100999.58
2018-12-11T03:28:28.633Z,100998.64
2018-12-11T03:30:59.861Z,100994.05
2018-12-11T03:33:29.933Z,100997.91
2018-12-11T03:35:59.896Z,100992.87
2018-12-11T03:38:29.859Z,100985.99
2018-12-11T03:41:00.508Z,100979.63
2018-12-11T03:43:30.436Z,100983.05
2018-12-11T03:46:01.134Z,100989.14
2018-12-11T03:48:31.741Z,100980.09
2018-12-11T03:51:04.271Z,100992.98
2018-12-11T03:53:34.982Z,101002.01
2018-12-11T03:56:05.010Z,101003.59
2018-12-11T03:58:35.027Z,101007.44
2018-12-11T04:01:05.458Z,101001.83
2018-12-11T04:03:37.012Z,101005.20
2018-12-11T04:06:07.776Z,101002.13
2018-12-11T04:08:39.081Z,101005.08
2018-12-11T04:11:09.193Z,101005.02
2018-12-11T04:13:39.257Z,100998.63
2018-12-11T04:16:09.295Z,101002.13
2018-12-11T04:18:39.933Z,101001.41
2018-12-11T04:21:10.546Z,101000.09
2018-12-11T04:23:40.561Z,101001.00
2018-12-11T04:26:11.199Z,101009.14
2018-12-11T04:28:41.949Z,101003.66
2018-12-11T04:31:12.531Z,101006.24
2018-12-11T04:33:42.491Z,101001.91
2018-12-11T04:36:13.130Z,101005.96
2018-12-11T04:38:43.568Z,101008.90
2018-12-11T04:41:13.674Z,101016.56
2018-12-11T04:43:44.221Z,101018.22
2018-12-11T04:46:14.291Z,101021.70
2018-12-11T04:48:44.375Z,101028.08
2018-12-11T04:51:14.582Z,101035.80
2018-12-11T04:53:44.719Z,101035.86
2018-12-11T04:56:14.651Z,101046.55
2018-12-11T04:58:44.675Z,101032.89
2018-12-11T05:01:14.692Z,101041.02
2018-12-11T05:03:45.966Z,101039.64
2018-12-11T05:06:15.909Z,101041.66
2018-12-11T05:08:46.511Z,101044.20
2018-12-11T05:11:16.496Z,101049.08
2018-12-11T05:13:51.169Z,101042.14
2018-12-11T05:16:21.519Z,101049.34
2018-12-11T05:18:51.981Z,101049.77
2018-12-11T05:21:21.921Z,101054.44
2018-12-11T05:23:51.835Z,101057.31
2018-12-11T05:26:23.093Z,101061.99
2018-12-11T05:28:53.832Z,101060.30
2018-12-11T05:31:24.484Z,101066.77
2018-12-11T05:33:56.229Z,101063.80
2018-12-11T05:36:26.353Z,101078.88
2018-12-11T05:38:56.898Z,101067.76
2018-12-11T05:41:28.338Z,101059.17
2018-12-11T05:43:58.333Z,101071.63
2018-12-11T05:46:28.266Z,101070.86
2018-12-11T05:48:58.784Z,101071.75
2018-12-11T05:51:29.550Z,101068.23
2018-12-11T05:54:00.558Z,101076.43
2018-12-11T05:56:32.585Z,101074.31
2018-12-11T05:59:03.162Z,101075.98
2018-12-11T06:01:33.218Z,101076.45
2018-12-11T06:04:03.634Z,101084.05
2018-12-11T06:06:33.606Z,101089.69
2018-12-11T06:09:04.660Z,101082.39
2018-12-11T06:11:35.437Z,101084.42
2018-12-11T06:14:05.451Z,101087.06
2018-12-11T06:16:37.031Z,101089.72
2018-12-11T06:19:07.067Z,101089.70
2018-12-11T06:21:37.114Z,101094.50
2018-12-11T06:24:07.216Z,101088.91
2018-12-11T06:26:39.446Z,101087.31
2018-12-11T06:29:10.789Z,101092.92
2018-12-11T06:31:42.374Z,101095.47
2018-12-11T06:34:12.396Z,101092.01
2018-12-11T06:36:43.620Z,101093.27
2018-12-11T06:39:14.258Z,101098.42
2018-12-11T06:41:44.345Z,101103.28
2018-12-11T06:44:15.040Z,101106.14
2018-12-11T06:46:45.037Z,101113.44
2018-12-11T06:49:15.001Z,101112.70
2018-12-11T06:51:46.102Z,101114.76
2018-12-11T06:54:16.063Z,101117.83
2018-12-11T06:56:46.153Z,101131.95
2018-12-11T06:59:17.724Z,101130.67
2018-12-11T07:01:49.673Z,101133.59
2018-12-11T07:04:19.712Z,101137.47
2018-12-11T07:06:50.346Z,101143.48
2018-12-11T07:09:20.265Z,101142.14
2018-12-11T07:11:50.941Z,101142.48
2018-12-11T07:14:21.053Z,101151.11
2018-12-11T07:16:51.639Z,101152.94
2018-12-11T07:19:21.682Z,101154.91
2018-12-11T07:21:52.422Z,101162.22
2018-12-11T07:24:22.983Z,101160.02
2018-12-11T07:26:53.179Z,101165.55
2018-12-11T07:29:23.084Z,101165.74
2018-12-11T07:31:53.162Z,101166.16
2018-12-11T07:34:24.472Z,101155.84
2018-12-11T07:36:55.286Z,101165.58
2018-12-11T07:39:25.340Z,101163.13
2018-12-11T07:41:55.354Z,101163.02
2018-12-11T07:44:25.367Z,101169.06
2018-12-11T07:46:55.375Z,101173.27
2018-12-11T07:49:25.405Z,101165.52
2018-12-11T07:51:55.543Z,101167.84
2018-12-11T07:54:25.566Z,101167.41
2018-12-11T07:56:55.585Z,101163.34
2018-12-11T07:59:25.607Z,101167.91
2018-12-11T08:01:56.835Z,101169.52
2018-12-11T08:04:28.105Z,101173.39
2018-12-11T08:06:58.127Z,101176.52
2018-12-11T08:09:28.864Z,101176.62
2018-12-11T08:11:59.985Z,101182.59
2018-12-11T08:14:29.930Z,101182.49
2018-12-11T08:17:00.904Z,101184.61
2018-12-11T08:19:31.417Z,101180.44
2018-12-11T08:22:01.509Z,101189.61
2018-12-11T08:24:31.528Z,101189.80
2018-12-11T08:27:01.608Z,101191.72
2018-12-11T08:29:32.841Z,101187.49
2018-12-11T08:32:03.379Z,101198.30
2018-12-11T08:34:34.091Z,101192.91
2018-12-11T08:37:05.628Z,101199.98
2018-12-11T08:39:36.287Z,101208.05
2018-12-11T08:42:06.452Z,101208.11
2018-12-11T08:44:36.942Z,101203.27
2018-12-11T08:47:07.463Z,101212.48
2018-12-11T08:49:38.289Z,101208.77
2018-12-11T08:52:08.985Z,101204.93
2018-12-11T08:54:39.469Z,101211.39
2018-12-11T08:57:10.112Z,101223.08
2018-12-11T08:59:40.522Z,101212.81
2018-12-11T09:02:11.266Z,101217.97
2018-12-11T09:04:41.845Z,101200.16
2018-12-11T09:07:13.531Z,101213.08
2018-12-11T09:09:43.484Z,101206.42
2018-12-11T09:12:13.585Z,101212.41
2018-12-11T09:14:43.750Z,101206.41
2018-12-11T09:17:14.973Z,101215.27
2018-12-11T09:19:45.010Z,101212.28
2018-12-11T09:22:15.525Z,101223.05
2018-12-11T09:24:46.462Z,101226.95
2018-12-11T09:27:16.515Z,101224.22
2018-12-11T09:29:47.957Z,101226.19
2018-12-11T09:32:18.067Z,101227.33
2018-12-11T09:34:49.343Z,101227.99
2018-12-11T09:37:19.443Z,101237.80
2018-12-11T09:39:49.896Z,101245.05
2018-12-11T09:42:19.919Z,101244.44
2018-12-11T09:44:51.371Z,101239.48
2018-12-11T09:47:22.826Z,101240.09
2018-12-11T09:49:54.155Z,101240.91
2018-12-11T09:52:25.369Z,101238.09
2018-12-11T09:54:55.333Z,101245.44
2018-12-11T09:57:25.406Z,101240.86
2018-12-11T09:59:56.317Z,101241.28
2018-12-11T10:02:26.974Z,101238.39
2018-12-11T10:04:58.494Z,101244.09
2018-12-11T10:07:28.627Z,101238.62
2018-12-11T10:09:59.175Z,101233.31
2018-12-11T10:12:29.483Z,101231.86
2018-12-11T10:15:00.121Z,101235.81
2018-12-11T10:17:30.237Z,101237.52
2018-12-11T10:20:00.166Z,101239.36
2018-12-11T10:22:30.795Z,101239.94
2018-12-11T10:25:01.206Z,101239.16
2018-12-11T10:27:31.255Z,101237.10
2018-12-11T10:30:01.276Z,101236.23
2018-12-11T10:32:31.944Z,101240.64
2018-12-11T10:35:02.811Z,101235.84
2018-12-11T10:37:33.284Z,101233.98
2018-12-11T10:40:04.167Z,101241.34
2018-12-11T10:42:34.892Z,101229.77
2018-12-11T10:45:05.550Z,101238.19
2018-12-11T10:47:36.718Z,101234.84
2018-12-11T10:50:08.301Z,101237.32
2018-12-11T10:52:38.500Z,101238.47
2018-12-11T10:55:09.243Z,101233.18
2018-12-11T10:57:40.170Z,101240.52
2018-12-11T11:00:15.653Z,101230.67
2018-12-11T11:02:51.137Z,101239.86
2018-12-11T11:05:22.937Z,101240.91
2018-12-11T11:07:53.085Z,101236.52
2018-12-11T11:10:23.124Z,101247.03
2018-12-11T11:12:53.123Z,101244.00
2018-12-11T11:15:23.044Z,101244.38
2018-12-11T11:17:53.175Z,101256.84
2018-12-11T11:20:23.806Z,101246.55
2018-12-11T11:22:55.641Z,101246.61
2018-12-11T11:25:25.586Z,101233.56
2018-12-11T11:27:56.940Z,101242.78
2018-12-11T11:30:28.169Z,101234.02
2018-12-11T11:32:58.145Z,101234.23
2018-12-11T11:35:28.050Z,101240.48
2018-12-11T11:37:59.058Z,101242.33
2018-12-11T11:40:30.304Z,101245.33
2018-12-11T11:43:00.322Z,101242.05
2018-12-11T11:45:30.979Z,101253.92
2018-12-11T11:48:01.869Z,101257.84
2018-12-11T11:50:32.695Z,101256.14
2018-12-11T11:53:02.682Z,101263.13
2018-12-11T11:55:32.779Z,101259.38
2018-12-11T11:58:02.899Z,101261.51
2018-12-11T12:00:33.050Z,101252.80
2018-12-11T12:03:03.669Z,101263.66
2018-12-11T12:05:34.240Z,101259.77
2018-12-11T12:08:05.067Z,101267.98
2018-12-11T12:10:36.444Z,101268.43
2018-12-11T12:13:06.545Z,101266.30
2018-12-11T12:15:36.660Z,101263.53
2018-12-11T12:18:06.693Z,101266.94
2018-12-11T12:20:37.201Z,101263.11
2018-12-11T12:23:07.310Z,101266.75
2018-12-11T12:25:37.273Z,101270.27
2018-12-11T12:28:08.073Z,101265.09
2018-12-11T12:30:39.933Z,101273.20
2018-12-11T12:33:10.497Z,101278.31
2018-12-11T12:35:42.242Z,101274.06
2018-12-11T12:38:14.109Z,101286.70
2018-12-11T12:40:44.114Z,101286.62
2018-12-11T12:43:14.138Z,101277.41
2018-12-11T12:45:45.038Z,101289.00
2018-12-11T12:48:15.023Z,101282.42
2018-12-11T12:50:46.517Z,101287.64
2018-12-11T12:53:16.607Z,101292.72
2018-12-11T12:55:47.066Z,101289.51
2018-12-11T12:58:17.164Z,101288.22
2018-12-11T13:00:47.838Z,101297.63
2018-12-11T13:03:17.915Z,101287.51
2018-12-11T13:05:48.724Z,101300.77
2018-12-11T13:08:19.269Z,101297.13
2018-12-11T13:10:49.821Z,101293.23
2018-12-11T13:13:19.814Z,101300.20
2018-12-11T13:15:50.093Z,101314.02
2018-12-11T13:18:22.034Z,101305.31
2018-12-11T13:20:52.666Z,101310.23
2018-12-11T13:23:23.523Z,101313.47
2018-12-11T13:25:53.458Z,101315.41
2018-12-11T13:28:24.377Z,101319.49
2018-12-11T13:30:54.356Z,101317.64
2018-12-11T13:33:24.384Z,101316.48
2018-12-11T13:35:54.928Z,101314.09
2018-12-11T13:38:26.183Z,101317.61
2018-12-11T13:40:56.998Z,101323.89
2018-12-11T13:43:26.849Z,101329.87
2018-12-11T13:45:57.697Z,101330.19
2018-12-11T13:48:28.952Z,101334.70
2018-12-11T13:50:59.488Z,101335.44
2018-12-11T13:53:30.112Z,101331.38
2018-12-11T13:56:00.694Z,101330.55
2018-12-11T13:58:32.178Z,101334.92
2018-12-11T14:01:02.168Z,101339.75
2018-12-11T14:03:32.956Z,101339.72
2018-12-11T14:06:03.780Z,101342.36
2018-12-11T14:08:34.431Z,101347.47
2018-12-11T14:11:04.729Z,101351.24
2018-12-11T14:13:35.385Z,101355.68
2018-12-11T14:16:06.043Z,101354.16
2018-12-11T14:18:37.510Z,101358.13
2018-12-11T14:21:08.338Z,101361.66
2018-12-11T14:23:38.459Z,101364.18
2018-12-11T14:26:09.134Z,101366.19
2018-12-11T14:28:39.337Z,101365.41
2018-12-11T14:31:09.542Z,101359.22
2018-12-11T14:33:39.452Z,101361.48
2018-12-11T14:36:09.448Z,101367.53
2018-12-11T14:38:39.485Z,101364.12
2018-12-11T14:41:09.523Z,101363.43
2018-12-11T14:43:39.449Z,101364.77
2018-12-11T14:46:09.610Z,101366.48
2018-12-11T14:48:40.533Z,101370.81
2018-12-11T14:51:10.469Z,101373.33
2018-12-11T14:53:40.538Z,101376.30
2018-12-11T14:56:10.525Z,101372.87
2018-12-11T14:58:40.674Z,101368.27
2018-12-11T15:01:12.658Z,101369.47
2018-12-11T15:03:42.736Z,101372.91
2018-12-11T15:06:12.808Z,101377.64
2018-12-11T15:08:42.914Z,101383.98
2018-12-11T15:11:13.607Z,101378.42
2018-12-11T15:13:43.673Z,101381.22
2018-12-11T15:16:13.978Z,101384.80
2018-12-11T15:18:44.079Z,101388.73
2018-12-11T15:21:15.286Z,101384.61
2018-12-11T15:23:45.306Z,101395.12
2018-12-11T15:26:15.432Z,101392.61
2018-12-11T15:28:46.681Z,101399.14
2018-12-11T15:31:18.543Z,101405.12
2018-12-11T15:33:48.645Z,101402.45
2018-12-11T15:36:19.203Z,101405.40
2018-12-11T15:38:49.803Z,101400.38
2018-12-11T15:41:19.949Z,101407.25
2018-12-11T15:43:51.110Z,101411.53
2018-12-11T15:46:21.671Z,101408.98
2018-12-11T15:48:52.899Z,101409.48
2018-12-11T15:51:23.052Z,101403.97
2018-12-11T15:53:53.186Z,101413.44
2018-12-11T15:56:23.257Z,101415.09
2018-12-11T15:58:53.259Z,101416.36
2018-12-11T16:01:23.375Z,101412.89
2018-12-11T16:03:54.144Z,101420.48
2018-12-11T16:06:24.063Z,101415.86
2018-12-11T16:08:54.039Z,101418.28
2018-12-11T16:11:25.242Z,101423.50
2018-12-11T16:13:55.347Z,101417.20
2018-12-11T16:16:27.883Z,101419.87
2018-12-11T16:18:59.187Z,101419.33
2018-12-11T16:21:30.714Z,101423.73
2018-12-11T16:24:00.819Z,101431.80
2018-12-11T16:26:32.090Z,101433.61
2018-12-11T16:29:02.216Z,101442.23
2018-12-11T16:31:34.611Z,101437.60
2018-12-11T16:34:05.598Z,101434.45
2018-12-11T16:36:36.089Z,101439.97
2018-12-11T16:39:08.666Z,101436.56
2018-12-11T16:41:38.707Z,101435.25
2018-12-11T16:44:09.279Z,101437.70
2018-12-11T16:46:40.462Z,101438.23
2018-12-11T16:49:10.456Z,101439.56
2018-12-11T16:51:41.009Z,101446.47
2018-12-11T16:54:11.470Z,101449.86
2018-12-11T16:56:42.706Z,101455.02
2018-12-11T16:59:12.681Z,101459.36
2018-12-11T17:01:43.443Z,101463.27
2018-12-11T17:04:14.178Z,101465.02
2018-12-11T17:06:44.123Z,101470.29
2018-12-11T17:09:15.269Z,101468.20
2018-12-11T17:11:45.702Z,101469.00
2018-12-11T17:14:15.696Z,101466.84
2018-12-11T17:16:45.748Z,101464.89
2018-12-11T17:19:15.758Z,101468.72
2018-12-11T17:21:47.321Z,101471.36
2018-12-11T17:24:17.492Z,101479.74
2018-12-11T17:26:48.973Z,101483.17
2018-12-11T17:29:24.113Z,101486.64
2018-12-11T17:31:52.426Z,101486.62
2018-12-11T17:34:22.446Z,101489.16
2018-12-11T17:36:52.486Z,101493.05
2018-12-11T17:39:23.073Z,101494.34
2018-12-11T17:41:53.202Z,101494.77
2018-12-11T17:44:24.632Z,101494.37
2018-12-11T17:46:56.432Z,101485.02
2018-12-11T17:49:27.055Z,101489.34
2018-12-11T17:51:58.171Z,101485.88
2018-12-11T17:54:28.847Z,101488.42
2018-12-11T17:56:59.571Z,101494.13
2018-12-11T17:59:30.311Z,101492.39
2018-12-11T18:02:05.219Z,101494.18
2018-12-11T18:04:36.721Z,101497.19
2018-12-11T18:07:07.457Z,101506.14
2018-12-11T18:09:37.627Z,101503.12
2018-12-11T18:12:08.818Z,101511.27
2018-12-11T18:14:39.380Z,101507.46
2018-12-11T18:17:09.581Z,101510.88
2018-12-11T18:19:40.852Z,101514.25
2018-12-11T18:22:10.834Z,101519.06
2018-12-11T18:24:42.929Z,101515.17
2018-12-11T18:27:14.287Z,101521.59
2018-12-11T18:29:44.963Z,101525.15
2018-12-11T18:32:15.178Z,101528.53
2018-12-11T18:34:46.912Z,101532.78
2018-12-11T18:37:17.024Z,101535.00
2018-12-11T18:39:49.044Z,101536.69
2018-12-11T18:42:19.801Z,101532.80
2018-12-11T18:44:49.983Z,101535.80
2018-12-11T18:47:20.593Z,101534.01
2018-12-11T18:49:51.411Z,101534.91
2018-12-11T18:52:21.466Z,101530.66
2018-12-11T18:54:51.550Z,101535.81
2018-12-11T18:57:22.827Z,101532.80
2018-12-11T18:59:52.955Z,101535.31
2018-12-11T19:02:22.982Z,101540.56
2018-12-11T19:04:54.712Z,101535.80
2018-12-11T19:07:24.707Z,101539.93
2018-12-11T19:09:56.614Z,101534.05
2018-12-11T19:12:27.236Z,101539.97
2018-12-11T19:14:57.274Z,101540.12
2018-12-11T19:17:27.293Z,101542.63
2018-12-11T19:19:57.931Z,101542.22
2018-12-11T19:22:28.565Z,101544.81
2018-12-11T19:24:59.183Z,101544.00
2018-12-11T19:27:29.325Z,101555.99
2018-12-11T19:29:59.909Z,101548.18
2018-12-11T19:32:31.214Z,101547.79
2018-12-11T19:35:02.167Z,101552.42
2018-12-11T19:37:32.186Z,101554.14
2018-12-11T19:40:03.002Z,101558.90
2018-12-11T19:42:33.162Z,101550.75
2018-12-11T19:45:03.425Z,101552.91
2018-12-11T19:47:35.486Z,101565.39
2018-12-11T19:50:07.222Z,101564.97
2018-12-11T19:52:39.911Z,101564.53
2018-12-11T19:55:10.326Z,101560.73
2018-12-11T19:57:41.596Z,101562.48
2018-12-11T20:03:12.603Z,101565.84
2018-12-11T20:05:42.688Z,101573.06
2018-12-11T20:08:13.499Z,101573.56
2018-12-11T20:10:43.699Z,101578.65
2018-12-11T20:13:13.986Z,101572.77
2018-12-11T20:15:44.740Z,101583.88
2018-12-11T20:18:17.227Z,101586.03
2018-12-11T20:20:47.493Z,101589.52
2018-12-11T20:23:18.239Z,101590.79
2018-12-11T20:25:48.381Z,101586.49
2018-12-11T20:28:18.630Z,101589.02
2018-12-11T20:30:49.367Z,101586.92
2018-12-11T20:33:19.415Z,101591.66
2018-12-11T20:35:50.302Z,101594.30
2018-12-11T20:38:20.958Z,101598.53
2018-12-11T20:40:51.608Z,101601.98
2018-12-11T20:43:23.521Z,101601.16
2018-12-11T20:45:53.811Z,101596.46
2018-12-11T20:48:24.081Z,101596.88
2018-12-11T20:50:54.301Z,101602.86
2018-12-11T20:53:24.330Z,101598.17
2018-12-11T20:55:54.560Z,101597.72
2018-12-11T20:58:24.758Z,101598.53
2018-12-11T21:00:55.618Z,101607.59
2018-12-11T21:03:25.491Z,101603.25
2018-12-11T21:05:55.781Z,101604.61
2018-12-11T21:08:28.523Z,101608.86
2018-12-11T21:10:58.821Z,101611.92
2018-12-11T21:13:30.473Z,101611.50
2018-12-11T21:16:00.679Z,101618.83
2018-12-11T21:18:32.583Z,101621.08
2018-12-11T21:21:04.346Z,101624.50
2018-12-11T21:23:34.983Z,101626.66
2018-12-11T21:26:05.927Z,101627.95
2018-12-11T21:28:36.829Z,101630.98
2018-12-11T21:31:07.255Z,101632.72
2018-12-11T21:33:37.321Z,101633.20
2018-12-11T21:36:07.857Z,101637.47
2018-12-11T21:38:37.929Z,101643.00
2018-12-11T21:41:08.047Z,101638.33
2018-12-11T21:43:38.119Z,101647.30
2018-12-11T21:46:08.147Z,101643.45
2018-12-11T21:48:39.597Z,101639.20
2018-12-11T21:51:11.548Z,101645.17
2018-12-11T21:53:43.017Z,101646.89
2018-12-11T21:56:13.073Z,101656.27
2018-12-11T21:58:43.155Z,101654.97
2018-12-11T22:01:13.262Z,101658.41
2018-12-11T22:03:43.491Z,101656.27
2018-12-11T22:06:13.848Z,101655.40
2018-12-11T22:08:44.407Z,101662.24
2018-12-11T22:11:14.552Z,101665.23
2018-12-11T22:13:44.723Z,101665.66
2018-12-11T22:16:16.663Z,101663.97
2018-12-11T22:18:48.146Z,101665.68
2018-12-11T22:21:18.346Z,101666.52
2018-12-11T22:23:49.823Z,101665.66
2018-12-11T22:26:21.209Z,101662.25
2018-12-11T22:28:51.816Z,101663.11
2018-12-11T22:31:21.910Z,101663.95
2018-12-11T22:33:52.135Z,101669.06
2018-12-11T22:36:22.267Z,101670.36
2018-12-11T22:38:52.371Z,101667.78
2018-12-11T22:41:22.461Z,101668.63
2018-12-11T22:43:52.450Z,101671.59
2018-12-11T22:46:23.502Z,101676.73
2018-12-11T22:48:53.965Z,101676.30
2018-12-11T22:51:24.545Z,101673.74
2018-12-11T22:53:54.661Z,101678.05
2018-12-11T22:56:25.729Z,101680.16
2018-12-11T22:58:55.674Z,101686.11
2018-12-11T23:01:25.944Z,101681.01
2018-12-11T23:03:56.778Z,101690.85
2018-12-11T23:06:26.876Z,101685.28
2018-12-11T23:08:57.554Z,101685.69
2018-12-11T23:11:28.284Z,101691.25
2018-12-11T23:13:58.737Z,101693.83
2018-12-11T23:16:28.841Z,101697.24
2018-12-11T23:18:58.920Z,101701.11
2018-12-11T23:21:29.882Z,101699.80
2018-12-11T23:24:02.082Z,101705.37
2018-12-11T23:26:32.930Z,101701.50
2018-12-11T23:29:02.965Z,101704.49
2018-12-11T23:31:32.918Z,101707.91
2018-12-11T23:34:03.004Z,101713.05
2018-12-11T23:36:33.747Z,101707.07
2018-12-11T23:39:05.919Z,101700.23
2018-12-11T23:41:37.139Z,101698.95
2018-12-11T23:44:07.180Z,101707.09
2018-12-11T23:46:37.246Z,101702.81
2018-12-11T23:49:07.335Z,101703.23
2018-12-11T23:51:37.905Z,101710.06
2018-12-11T23:54:08.076Z,101702.38
2018-12-11T23:56:38.249Z,101701.50
2018-12-11T23:59:08.508Z,101699.39
